sensor_id;sensor_type;location;lat;lon;timestamp;temperature;humidity
66119;DHT22;52912;48.564;9.302;2022-10-15T00:01:22;14.54;97.43
66119;DHT22;52912;48.564;9.302;2022-10-15T00:03:49;14.54;97.41
66119;DHT22;52912;48.564;9.302;2022-10-15T00:06:16;14.59;97.28
66119;DHT22;52912;48.564;9.302;2022-10-15T00:08:42;14.57;97.31
66119;DHT22;52912;48.564;9.302;2022-10-15T00:11:10;14.56;97.37
66119;DHT22;52912;48.564;9.302;2022-10-15T00:13:36;14.53;97.68
66119;DHT22;52912;48.564;9.302;2022-10-15T00:16:02;14.63;97.16
66119;DHT22;52912;48.564;9.302;2022-10-15T00:18:27;14.60;97.25
66119;DHT22;52912;48.564;9.302;2022-10-15T00:20:54;14.63;97.16
66119;DHT22;52912;48.564;9.302;2022-10-15T00:23:20;14.61;97.30
66119;DHT22;52912;48.564;9.302;2022-10-15T00:25:45;14.59;97.30
66119;DHT22;52912;48.564;9.302;2022-10-15T00:28:11;14.63;97.09
66119;DHT22;52912;48.564;9.302;2022-10-15T00:30:36;14.65;96.96
66119;DHT22;52912;48.564;9.302;2022-10-15T00:33:02;14.61;97.43
66119;DHT22;52912;48.564;9.302;2022-10-15T00:35:27;14.64;97.31
66119;DHT22;52912;48.564;9.302;2022-10-15T00:37:54;14.71;97.13
66119;DHT22;52912;48.564;9.302;2022-10-15T00:40:20;14.82;97.01
66119;DHT22;52912;48.564;9.302;2022-10-15T00:42:45;14.75;97.10
66119;DHT22;52912;48.564;9.302;2022-10-15T00:45:12;14.64;97.70
66119;DHT22;52912;48.564;9.302;2022-10-15T00:47:40;14.68;97.59
66119;DHT22;52912;48.564;9.302;2022-10-15T00:50:07;14.72;97.33
66119;DHT22;52912;48.564;9.302;2022-10-15T00:52:43;14.72;97.56
66119;DHT22;52912;48.564;9.302;2022-10-15T00:55:14;14.81;97.48
66119;DHT22;52912;48.564;9.302;2022-10-15T00:57:42;14.84;97.06
66119;DHT22;52912;48.564;9.302;2022-10-15T01:00:11;14.81;97.16
66119;DHT22;52912;48.564;9.302;2022-10-15T01:02:37;14.82;97.34
66119;DHT22;52912;48.564;9.302;2022-10-15T01:05:03;14.87;96.96
66119;DHT22;52912;48.564;9.302;2022-10-15T01:07:29;14.92;96.71
66119;DHT22;52912;48.564;9.302;2022-10-15T01:09:54;14.87;97.16
66119;DHT22;52912;48.564;9.302;2022-10-15T01:12:30;14.88;97.29
66119;DHT22;52912;48.564;9.302;2022-10-15T01:15:04;14.96;96.71
66119;DHT22;52912;48.564;9.302;2022-10-15T01:17:35;14.95;97.22
66119;DHT22;52912;48.564;9.302;2022-10-15T01:20:42;14.99;97.17
66119;DHT22;52912;48.564;9.302;2022-10-15T01:26:25;14.89;97.91
66119;DHT22;52912;48.564;9.302;2022-10-15T01:29:12;14.88;98.20
66119;DHT22;52912;48.564;9.302;2022-10-15T01:31:51;14.88;98.00
66119;DHT22;52912;48.564;9.302;2022-10-15T01:34:21;14.81;98.49
66119;DHT22;52912;48.564;9.302;2022-10-15T01:36:53;14.80;98.35
66119;DHT22;52912;48.564;9.302;2022-10-15T01:39:23;14.78;98.44
66119;DHT22;52912;48.564;9.302;2022-10-15T01:41:52;14.78;98.49
66119;DHT22;52912;48.564;9.302;2022-10-15T01:44:22;14.84;98.11
66119;DHT22;52912;48.564;9.302;2022-10-15T01:46:51;14.82;98.33
66119;DHT22;52912;48.564;9.302;2022-10-15T01:49:20;14.92;97.69
66119;DHT22;52912;48.564;9.302;2022-10-15T01:51:48;14.93;97.90
66119;DHT22;52912;48.564;9.302;2022-10-15T01:54:16;14.92;97.85
66119;DHT22;52912;48.564;9.302;2022-10-15T01:56:45;14.92;98.01
66119;DHT22;52912;48.564;9.302;2022-10-15T01:59:12;14.92;97.77
66119;DHT22;52912;48.564;9.302;2022-10-15T02:01:41;14.91;98.05
66119;DHT22;52912;48.564;9.302;2022-10-15T02:04:16;14.96;97.77
66119;DHT22;52912;48.564;9.302;2022-10-15T02:06:43;14.91;98.08
66119;DHT22;52912;48.564;9.302;2022-10-15T02:09:15;14.93;98.00
66119;DHT22;52912;48.564;9.302;2022-10-15T02:11:49;14.98;97.85
66119;DHT22;52912;48.564;9.302;2022-10-15T02:14:25;15.08;97.65
66119;DHT22;52912;48.564;9.302;2022-10-15T02:16:55;15.02;97.96
66119;DHT22;52912;48.564;9.302;2022-10-15T02:19:29;15.02;98.02
66119;DHT22;52912;48.564;9.302;2022-10-15T02:22:01;15.13;97.61
66119;DHT22;52912;48.564;9.302;2022-10-15T02:24:34;15.18;97.59
66119;DHT22;52912;48.564;9.302;2022-10-15T02:27:02;15.16;97.63
66119;DHT22;52912;48.564;9.302;2022-10-15T02:29:32;15.12;97.93
66119;DHT22;52912;48.564;9.302;2022-10-15T02:31:59;15.16;97.85
66119;DHT22;52912;48.564;9.302;2022-10-15T02:34:28;15.15;98.00
66119;DHT22;52912;48.564;9.302;2022-10-15T02:36:57;15.09;98.35
66119;DHT22;52912;48.564;9.302;2022-10-15T02:39:23;15.20;98.01
66119;DHT22;52912;48.564;9.302;2022-10-15T02:41:49;15.13;98.17
66119;DHT22;52912;48.564;9.302;2022-10-15T02:44:15;15.15;98.16
66119;DHT22;52912;48.564;9.302;2022-10-15T02:46:41;15.16;98.08
66119;DHT22;52912;48.564;9.302;2022-10-15T02:49:06;15.19;98.07
66119;DHT22;52912;48.564;9.302;2022-10-15T02:51:34;15.15;98.20
66119;DHT22;52912;48.564;9.302;2022-10-15T02:54:00;15.16;98.27
66119;DHT22;52912;48.564;9.302;2022-10-15T02:56:26;15.15;98.35
66119;DHT22;52912;48.564;9.302;2022-10-15T02:58:52;15.19;98.28
66119;DHT22;52912;48.564;9.302;2022-10-15T03:01:17;15.15;98.55
66119;DHT22;52912;48.564;9.302;2022-10-15T03:03:43;15.10;98.63
66119;DHT22;52912;48.564;9.302;2022-10-15T03:06:08;15.09;98.72
66119;DHT22;52912;48.564;9.302;2022-10-15T03:08:35;15.06;99.05
66119;DHT22;52912;48.564;9.302;2022-10-15T03:11:01;15.05;99.21
66119;DHT22;52912;48.564;9.302;2022-10-15T03:13:26;15.06;99.00
66119;DHT22;52912;48.564;9.302;2022-10-15T03:15:52;15.05;99.05
66119;DHT22;52912;48.564;9.302;2022-10-15T03:18:17;15.05;99.05
66119;DHT22;52912;48.564;9.302;2022-10-15T03:20:43;15.00;99.05
66119;DHT22;52912;48.564;9.302;2022-10-15T03:23:08;15.06;98.83
66119;DHT22;52912;48.564;9.302;2022-10-15T03:25:35;15.02;98.90
66119;DHT22;52912;48.564;9.302;2022-10-15T03:28:01;15.02;98.78
66119;DHT22;52912;48.564;9.302;2022-10-15T03:30:26;15.00;98.91
66119;DHT22;52912;48.564;9.302;2022-10-15T03:32:51;15.03;98.82
66119;DHT22;52912;48.564;9.302;2022-10-15T03:35:17;15.02;98.62
66119;DHT22;52912;48.564;9.302;2022-10-15T03:37:42;15.16;97.95
66119;DHT22;52912;48.564;9.302;2022-10-15T03:40:09;15.13;97.96
66119;DHT22;52912;48.564;9.302;2022-10-15T03:42:35;15.25;97.23
66119;DHT22;52912;48.564;9.302;2022-10-15T03:45:01;15.23;97.14
66119;DHT22;52912;48.564;9.302;2022-10-15T03:47:26;15.26;96.63
66119;DHT22;52912;48.564;9.302;2022-10-15T03:49:52;15.26;96.72
66119;DHT22;52912;48.564;9.302;2022-10-15T03:52:17;15.20;96.98
66119;DHT22;52912;48.564;9.302;2022-10-15T03:54:43;15.20;97.05
66119;DHT22;52912;48.564;9.302;2022-10-15T03:57:08;15.16;97.28
66119;DHT22;52912;48.564;9.302;2022-10-15T03:59:35;15.19;96.92
66119;DHT22;52912;48.564;9.302;2022-10-15T04:02:00;15.20;96.73
66119;DHT22;52912;48.564;9.302;2022-10-15T04:04:26;15.16;97.23
66119;DHT22;52912;48.564;9.302;2022-10-15T04:06:51;15.23;96.82
66119;DHT22;52912;48.564;9.302;2022-10-15T04:09:17;15.22;96.49
66119;DHT22;52912;48.564;9.302;2022-10-15T04:11:42;15.19;96.83
66119;DHT22;52912;48.564;9.302;2022-10-15T04:14:08;15.13;96.75
66119;DHT22;52912;48.564;9.302;2022-10-15T04:16:34;15.16;96.76
66119;DHT22;52912;48.564;9.302;2022-10-15T04:19:00;15.12;96.69
66119;DHT22;52912;48.564;9.302;2022-10-15T04:21:25;15.10;96.86
66119;DHT22;52912;48.564;9.302;2022-10-15T04:23:51;15.15;96.64
66119;DHT22;52912;48.564;9.302;2022-10-15T04:26:16;15.12;96.81
66119;DHT22;52912;48.564;9.302;2022-10-15T04:28:42;15.16;96.56
66119;DHT22;52912;48.564;9.302;2022-10-15T04:31:08;15.15;96.19
66119;DHT22;52912;48.564;9.302;2022-10-15T04:33:34;15.16;96.21
66119;DHT22;52912;48.564;9.302;2022-10-15T04:36:00;15.20;95.95
66119;DHT22;52912;48.564;9.302;2022-10-15T04:38:26;15.12;96.27
66119;DHT22;52912;48.564;9.302;2022-10-15T04:40:57;15.12;96.37
66119;DHT22;52912;48.564;9.302;2022-10-15T04:43:23;15.15;95.97
66119;DHT22;52912;48.564;9.302;2022-10-15T04:45:48;15.18;95.95
66119;DHT22;52912;48.564;9.302;2022-10-15T04:48:14;15.15;95.95
66119;DHT22;52912;48.564;9.302;2022-10-15T04:50:40;15.16;96.07
66119;DHT22;52912;48.564;9.302;2022-10-15T04:53:06;15.10;95.97
66119;DHT22;52912;48.564;9.302;2022-10-15T04:55:31;15.09;96.24
66119;DHT22;52912;48.564;9.302;2022-10-15T04:57:57;15.15;95.81
66119;DHT22;52912;48.564;9.302;2022-10-15T05:00:22;15.12;95.61
66119;DHT22;52912;48.564;9.302;2022-10-15T05:02:47;15.10;95.91
66119;DHT22;52912;48.564;9.302;2022-10-15T05:05:13;15.06;95.75
66119;DHT22;52912;48.564;9.302;2022-10-15T05:07:40;15.18;95.25
66119;DHT22;52912;48.564;9.302;2022-10-15T05:10:06;15.10;95.54
66119;DHT22;52912;48.564;9.302;2022-10-15T05:12:32;15.09;95.21
66119;DHT22;52912;48.564;9.302;2022-10-15T05:14:57;15.10;95.29
66119;DHT22;52912;48.564;9.302;2022-10-15T05:17:23;15.10;95.13
66119;DHT22;52912;48.564;9.302;2022-10-15T05:19:48;15.09;94.90
66119;DHT22;52912;48.564;9.302;2022-10-15T05:22:14;15.12;95.15
66119;DHT22;52912;48.564;9.302;2022-10-15T05:24:40;15.08;95.28
66119;DHT22;52912;48.564;9.302;2022-10-15T05:27:06;15.03;95.13
66119;DHT22;52912;48.564;9.302;2022-10-15T05:29:31;15.00;95.50
66119;DHT22;52912;48.564;9.302;2022-10-15T05:31:57;15.08;94.80
66119;DHT22;52912;48.564;9.302;2022-10-15T05:34:22;15.08;95.23
66119;DHT22;52912;48.564;9.302;2022-10-15T05:36:48;15.03;95.05
66119;DHT22;52912;48.564;9.302;2022-10-15T05:39:13;15.09;94.83
66119;DHT22;52912;48.564;9.302;2022-10-15T05:41:40;15.02;95.04
66119;DHT22;52912;48.564;9.302;2022-10-15T05:44:05;15.02;95.02
66119;DHT22;52912;48.564;9.302;2022-10-15T05:46:31;14.99;95.09
66119;DHT22;52912;48.564;9.302;2022-10-15T05:48:57;15.02;94.95
66119;DHT22;52912;48.564;9.302;2022-10-15T05:51:23;15.05;94.63
66119;DHT22;52912;48.564;9.302;2022-10-15T05:53:51;15.10;94.47
66119;DHT22;52912;48.564;9.302;2022-10-15T05:56:16;15.06;94.78
66119;DHT22;52912;48.564;9.302;2022-10-15T05:58:43;15.09;94.67
66119;DHT22;52912;48.564;9.302;2022-10-15T06:01:10;15.00;94.92
66119;DHT22;52912;48.564;9.302;2022-10-15T06:03:37;15.02;94.72
66119;DHT22;52912;48.564;9.302;2022-10-15T06:06:03;15.06;94.34
66119;DHT22;52912;48.564;9.302;2022-10-15T06:08:29;15.05;94.54
66119;DHT22;52912;48.564;9.302;2022-10-15T06:10:55;15.12;94.24
66119;DHT22;52912;48.564;9.302;2022-10-15T06:13:25;15.05;94.43
66119;DHT22;52912;48.564;9.302;2022-10-15T06:15:52;15.10;94.06
66119;DHT22;52912;48.564;9.302;2022-10-15T06:18:18;15.12;94.05
66119;DHT22;52912;48.564;9.302;2022-10-15T06:20:43;15.08;94.13
66119;DHT22;52912;48.564;9.302;2022-10-15T06:23:14;15.05;94.45
66119;DHT22;52912;48.564;9.302;2022-10-15T06:25:40;15.06;94.40
66119;DHT22;52912;48.564;9.302;2022-10-15T06:28:05;15.02;94.79
66119;DHT22;52912;48.564;9.302;2022-10-15T06:30:31;14.96;94.93
66119;DHT22;52912;48.564;9.302;2022-10-15T06:33:01;14.98;94.70
66119;DHT22;52912;48.564;9.302;2022-10-15T06:35:26;14.93;95.20
66119;DHT22;52912;48.564;9.302;2022-10-15T06:37:52;14.92;95.31
66119;DHT22;52912;48.564;9.302;2022-10-15T06:40:18;14.98;95.25
66119;DHT22;52912;48.564;9.302;2022-10-15T06:42:44;14.93;95.65
66119;DHT22;52912;48.564;9.302;2022-10-15T06:45:10;14.91;95.81
66119;DHT22;52912;48.564;9.302;2022-10-15T06:47:36;14.91;95.79
66119;DHT22;52912;48.564;9.302;2022-10-15T06:50:04;15.00;95.53
66119;DHT22;52912;48.564;9.302;2022-10-15T06:52:30;15.02;95.48
66119;DHT22;52912;48.564;9.302;2022-10-15T06:54:55;14.99;95.35
66119;DHT22;52912;48.564;9.302;2022-10-15T06:57:21;15.02;95.40
66119;DHT22;52912;48.564;9.302;2022-10-15T06:59:46;15.09;95.40
66119;DHT22;52912;48.564;9.302;2022-10-15T07:02:12;15.08;95.47
66119;DHT22;52912;48.564;9.302;2022-10-15T07:04:38;15.09;95.41
66119;DHT22;52912;48.564;9.302;2022-10-15T07:07:04;15.13;95.55
66119;DHT22;52912;48.564;9.302;2022-10-15T07:09:30;15.12;95.74
66119;DHT22;52912;48.564;9.302;2022-10-15T07:11:56;15.13;95.80
66119;DHT22;52912;48.564;9.302;2022-10-15T07:14:21;15.18;95.90
66119;DHT22;52912;48.564;9.302;2022-10-15T07:16:47;15.22;95.66
66119;DHT22;52912;48.564;9.302;2022-10-15T07:19:13;15.25;95.47
66119;DHT22;52912;48.564;9.302;2022-10-15T07:21:38;15.19;95.67
66119;DHT22;52912;48.564;9.302;2022-10-15T07:24:06;15.26;95.63
66119;DHT22;52912;48.564;9.302;2022-10-15T07:26:31;15.29;95.52
66119;DHT22;52912;48.564;9.302;2022-10-15T07:28:57;15.32;95.61
66119;DHT22;52912;48.564;9.302;2022-10-15T07:31:22;15.34;95.43
66119;DHT22;52912;48.564;9.302;2022-10-15T07:33:48;15.42;95.57
66119;DHT22;52912;48.564;9.302;2022-10-15T07:36:13;15.42;95.90
66119;DHT22;52912;48.564;9.302;2022-10-15T07:38:39;15.40;96.29
66119;DHT22;52912;48.564;9.302;2022-10-15T07:41:08;15.39;96.77
66119;DHT22;52912;48.564;9.302;2022-10-15T07:43:34;15.39;97.35
66119;DHT22;52912;48.564;9.302;2022-10-15T07:46:02;15.39;97.58
66119;DHT22;52912;48.564;9.302;2022-10-15T07:48:28;15.40;98.07
66119;DHT22;52912;48.564;9.302;2022-10-15T07:50:54;15.39;98.35
66119;DHT22;52912;48.564;9.302;2022-10-15T07:53:20;15.43;98.62
66119;DHT22;52912;48.564;9.302;2022-10-15T07:55:45;15.43;98.55
66119;DHT22;52912;48.564;9.302;2022-10-15T07:58:12;15.50;98.46
66119;DHT22;52912;48.564;9.302;2022-10-15T08:00:37;15.42;98.43
66119;DHT22;52912;48.564;9.302;2022-10-15T08:03:03;15.46;98.32
66119;DHT22;52912;48.564;9.302;2022-10-15T08:05:28;15.43;98.60
66119;DHT22;52912;48.564;9.302;2022-10-15T08:07:54;15.39;98.83
66119;DHT22;52912;48.564;9.302;2022-10-15T08:10:19;15.49;98.53
66119;DHT22;52912;48.564;9.302;2022-10-15T08:12:45;15.58;98.51
66119;DHT22;52912;48.564;9.302;2022-10-15T08:15:12;15.61;98.08
66119;DHT22;52912;48.564;9.302;2022-10-15T08:17:37;15.77;98.35
66119;DHT22;52912;48.564;9.302;2022-10-15T08:20:03;15.78;97.44
66119;DHT22;52912;48.564;9.302;2022-10-15T08:22:29;15.81;97.35
66119;DHT22;52912;48.564;9.302;2022-10-15T08:24:54;15.84;96.85
66119;DHT22;52912;48.564;9.302;2022-10-15T08:27:20;15.85;95.69
66119;DHT22;52912;48.564;9.302;2022-10-15T08:29:45;15.94;96.15
66119;DHT22;52912;48.564;9.302;2022-10-15T08:32:12;15.95;95.50
66119;DHT22;52912;48.564;9.302;2022-10-15T08:34:38;16.01;95.21
66119;DHT22;52912;48.564;9.302;2022-10-15T08:37:03;16.08;94.44
66119;DHT22;52912;48.564;9.302;2022-10-15T08:39:29;16.08;95.00
66119;DHT22;52912;48.564;9.302;2022-10-15T08:41:56;16.13;93.79
66119;DHT22;52912;48.564;9.302;2022-10-15T08:44:24;16.26;94.32
66119;DHT22;52912;48.564;9.302;2022-10-15T08:46:52;16.29;93.88
66119;DHT22;52912;48.564;9.302;2022-10-15T08:49:27;16.44;94.46
66119;DHT22;52912;48.564;9.302;2022-10-15T08:52:02;16.53;93.67
66119;DHT22;52912;48.564;9.302;2022-10-15T08:54:32;16.63;93.52
66119;DHT22;52912;48.564;9.302;2022-10-15T08:57:08;16.72;93.54
66119;DHT22;52912;48.564;9.302;2022-10-15T08:59:37;16.77;93.20
66119;DHT22;52912;48.564;9.302;2022-10-15T09:02:11;16.84;93.11
66119;DHT22;52912;48.564;9.302;2022-10-15T09:04:47;16.92;93.17
66119;DHT22;52912;48.564;9.302;2022-10-15T09:07:23;17.18;92.20
66119;DHT22;52912;48.564;9.302;2022-10-15T09:09:54;17.31;90.84
66119;DHT22;52912;48.564;9.302;2022-10-15T09:12:37;17.53;90.39
66119;DHT22;52912;48.564;9.302;2022-10-15T09:15:09;17.84;89.67
66119;DHT22;52912;48.564;9.302;2022-10-15T09:17:36;17.54;89.45
66119;DHT22;52912;48.564;9.302;2022-10-15T09:20:05;17.41;89.38
66119;DHT22;52912;48.564;9.302;2022-10-15T09:22:33;17.40;91.26
66119;DHT22;52912;48.564;9.302;2022-10-15T09:25:06;17.36;90.20
66119;DHT22;52912;48.564;9.302;2022-10-15T09:27:37;17.29;88.97
66119;DHT22;52912;48.564;9.302;2022-10-15T09:30:08;17.53;89.70
66119;DHT22;52912;48.564;9.302;2022-10-15T09:32:40;17.48;87.79
66119;DHT22;52912;48.564;9.302;2022-10-15T09:35:14;17.58;87.80
66119;DHT22;52912;48.564;9.302;2022-10-15T09:37:48;17.58;86.61
66119;DHT22;52912;48.564;9.302;2022-10-15T09:40:36;17.71;86.95
66119;DHT22;52912;48.564;9.302;2022-10-15T09:43:04;17.82;86.72
66119;DHT22;52912;48.564;9.302;2022-10-15T09:45:32;17.79;85.53
66119;DHT22;52912;48.564;9.302;2022-10-15T09:47:58;17.71;85.18
66119;DHT22;52912;48.564;9.302;2022-10-15T09:50:27;17.74;86.03
66119;DHT22;52912;48.564;9.302;2022-10-15T09:53:08;17.66;85.69
66119;DHT22;52912;48.564;9.302;2022-10-15T09:55:40;17.48;84.84
66119;DHT22;52912;48.564;9.302;2022-10-15T09:58:11;17.47;85.07
66119;DHT22;52912;48.564;9.302;2022-10-15T10:00:53;17.64;84.51
66119;DHT22;52912;48.564;9.302;2022-10-15T10:03:21;17.70;84.11
66119;DHT22;52912;48.564;9.302;2022-10-15T10:05:49;18.03;83.48
66119;DHT22;52912;48.564;9.302;2022-10-15T10:08:18;18.26;82.59
66119;DHT22;52912;48.564;9.302;2022-10-15T10:10:52;18.64;81.21
66119;DHT22;52912;48.564;9.302;2022-10-15T10:13:22;19.54;79.95
66119;DHT22;52912;48.564;9.302;2022-10-15T10:15:50;19.22;78.79
66119;DHT22;52912;48.564;9.302;2022-10-15T10:18:20;19.75;77.71
66119;DHT22;52912;48.564;9.302;2022-10-15T10:20:58;20.16;77.14
66119;DHT22;52912;48.564;9.302;2022-10-15T10:23:28;19.96;77.00
66119;DHT22;52912;48.564;9.302;2022-10-15T10:25:55;19.60;75.96
66119;DHT22;52912;48.564;9.302;2022-10-15T10:28:26;19.85;75.88
66119;DHT22;52912;48.564;9.302;2022-10-15T10:31:00;20.30;75.04
66119;DHT22;52912;48.564;9.302;2022-10-15T10:33:28;20.54;73.08
66119;DHT22;52912;48.564;9.302;2022-10-15T10:35:54;20.44;72.81
66119;DHT22;52912;48.564;9.302;2022-10-15T10:38:23;20.25;74.13
66119;DHT22;52912;48.564;9.302;2022-10-15T10:40:49;20.15;73.72
66119;DHT22;52912;48.564;9.302;2022-10-15T10:43:18;19.86;74.61
66119;DHT22;52912;48.564;9.302;2022-10-15T10:45:52;19.77;75.16
66119;DHT22;52912;48.564;9.302;2022-10-15T10:48:19;19.33;75.53
66119;DHT22;52912;48.564;9.302;2022-10-15T10:50:45;19.47;74.44
66119;DHT22;52912;48.564;9.302;2022-10-15T10:53:23;19.36;75.08
66119;DHT22;52912;48.564;9.302;2022-10-15T10:55:51;19.34;75.42
66119;DHT22;52912;48.564;9.302;2022-10-15T10:58:18;19.50;75.84
66119;DHT22;52912;48.564;9.302;2022-10-15T11:00:45;19.51;74.45
66119;DHT22;52912;48.564;9.302;2022-10-15T11:03:21;19.88;74.09
66119;DHT22;52912;48.564;9.302;2022-10-15T11:05:49;19.77;74.54
66119;DHT22;52912;48.564;9.302;2022-10-15T11:08:22;19.37;74.80
66119;DHT22;52912;48.564;9.302;2022-10-15T11:10:56;19.50;75.52
66119;DHT22;52912;48.564;9.302;2022-10-15T11:13:32;19.41;75.03
66119;DHT22;52912;48.564;9.302;2022-10-15T11:16:02;19.24;75.76
66119;DHT22;52912;48.564;9.302;2022-10-15T11:24:14;18.84;75.83
66119;DHT22;52912;48.564;9.302;2022-10-15T11:26:52;18.84;76.74
66119;DHT22;52912;48.564;9.302;2022-10-15T11:29:20;18.67;76.61
66119;DHT22;52912;48.564;9.302;2022-10-15T11:31:55;18.74;76.95
66119;DHT22;52912;48.564;9.302;2022-10-15T11:34:32;18.76;76.44
66119;DHT22;52912;48.564;9.302;2022-10-15T11:37:17;18.81;76.85
66119;DHT22;52912;48.564;9.302;2022-10-15T11:39:55;18.85;76.68
66119;DHT22;52912;48.564;9.302;2022-10-15T11:42:31;18.79;76.15
66119;DHT22;52912;48.564;9.302;2022-10-15T11:45:23;18.81;76.33
66119;DHT22;52912;48.564;9.302;2022-10-15T11:47:57;18.91;76.19
66119;DHT22;52912;48.564;9.302;2022-10-15T11:50:28;18.89;76.59
66119;DHT22;52912;48.564;9.302;2022-10-15T11:53:06;18.89;76.94
66119;DHT22;52912;48.564;9.302;2022-10-15T11:55:39;18.87;76.50
66119;DHT22;52912;48.564;9.302;2022-10-15T11:58:12;18.96;75.66
66119;DHT22;52912;48.564;9.302;2022-10-15T12:00:42;19.05;74.54
66119;DHT22;52912;48.564;9.302;2022-10-15T12:03:14;19.26;74.72
66119;DHT22;52912;48.564;9.302;2022-10-15T12:05:43;18.99;74.58
66119;DHT22;52912;48.564;9.302;2022-10-15T12:08:11;18.99;74.37
66119;DHT22;52912;48.564;9.302;2022-10-15T12:10:50;19.10;74.21
66119;DHT22;52912;48.564;9.302;2022-10-15T12:13:26;19.51;73.26
66119;DHT22;52912;48.564;9.302;2022-10-15T12:15:56;19.60;73.52
66119;DHT22;52912;48.564;9.302;2022-10-15T12:18:32;19.60;73.46
66119;DHT22;52912;48.564;9.302;2022-10-15T12:20:59;19.58;73.33
66119;DHT22;52912;48.564;9.302;2022-10-15T12:23:39;19.79;73.64
66119;DHT22;52912;48.564;9.302;2022-10-15T12:26:25;19.47;73.38
66119;DHT22;52912;48.564;9.302;2022-10-15T12:28:56;19.47;73.71
66119;DHT22;52912;48.564;9.302;2022-10-15T12:31:22;19.44;73.48
66119;DHT22;52912;48.564;9.302;2022-10-15T12:33:49;19.53;73.77
66119;DHT22;52912;48.564;9.302;2022-10-15T12:36:22;19.57;73.70
66119;DHT22;52912;48.564;9.302;2022-10-15T12:38:56;19.55;73.21
66119;DHT22;52912;48.564;9.302;2022-10-15T12:41:33;20.57;70.29
66119;DHT22;52912;48.564;9.302;2022-10-15T12:44:05;20.27;70.65
66119;DHT22;52912;48.564;9.302;2022-10-15T12:46:35;20.09;71.35
66119;DHT22;52912;48.564;9.302;2022-10-15T12:57:58;19.51;73.18
66119;DHT22;52912;48.564;9.302;2022-10-15T13:00:35;19.54;71.90
66119;DHT22;52912;48.564;9.302;2022-10-15T13:03:17;19.38;72.45
66119;DHT22;52912;48.564;9.302;2022-10-15T13:05:45;19.29;72.95
66119;DHT22;52912;48.564;9.302;2022-10-15T13:08:13;19.24;73.61
66119;DHT22;52912;48.564;9.302;2022-10-15T13:10:45;19.36;73.34
66119;DHT22;52912;48.564;9.302;2022-10-15T13:13:15;19.31;73.02
66119;DHT22;52912;48.564;9.302;2022-10-15T13:15:49;19.44;73.44
66119;DHT22;52912;48.564;9.302;2022-10-15T13:18:15;19.33;73.63
66119;DHT22;52912;48.564;9.302;2022-10-15T13:20:43;19.15;73.14
66119;DHT22;52912;48.564;9.302;2022-10-15T13:23:14;19.20;73.54
66119;DHT22;52912;48.564;9.302;2022-10-15T13:25:40;19.23;73.42
66119;DHT22;52912;48.564;9.302;2022-10-15T13:28:30;19.18;73.94
66119;DHT22;52912;48.564;9.302;2022-10-15T13:30:56;19.18;74.29
66119;DHT22;52912;48.564;9.302;2022-10-15T13:33:22;19.15;74.02
66119;DHT22;52912;48.564;9.302;2022-10-15T13:35:47;19.29;74.71
66119;DHT22;52912;48.564;9.302;2022-10-15T13:38:19;19.29;74.74
66119;DHT22;52912;48.564;9.302;2022-10-15T13:40:46;19.16;74.49
66119;DHT22;52912;48.564;9.302;2022-10-15T13:43:16;19.44;74.09
66119;DHT22;52912;48.564;9.302;2022-10-15T13:45:46;19.47;73.96
66119;DHT22;52912;48.564;9.302;2022-10-15T13:48:12;19.36;73.61
66119;DHT22;52912;48.564;9.302;2022-10-15T13:50:38;19.22;74.44
66119;DHT22;52912;48.564;9.302;2022-10-15T13:53:20;19.33;74.47
66119;DHT22;52912;48.564;9.302;2022-10-15T13:55:48;19.29;74.74
66119;DHT22;52912;48.564;9.302;2022-10-15T13:58:18;19.19;75.07
66119;DHT22;52912;48.564;9.302;2022-10-15T14:00:49;19.15;74.93
66119;DHT22;52912;48.564;9.302;2022-10-15T14:03:18;18.99;75.07
66119;DHT22;52912;48.564;9.302;2022-10-15T14:05:46;18.89;75.92
66119;DHT22;52912;48.564;9.302;2022-10-15T14:08:24;18.78;77.13
66119;DHT22;52912;48.564;9.302;2022-10-15T14:10:51;18.61;77.36
66119;DHT22;52912;48.564;9.302;2022-10-15T14:13:17;18.54;77.60
66119;DHT22;52912;48.564;9.302;2022-10-15T14:15:49;18.50;77.76
66119;DHT22;52912;48.564;9.302;2022-10-15T14:18:17;18.53;77.95
66119;DHT22;52912;48.564;9.302;2022-10-15T14:20:44;18.39;78.92
66119;DHT22;52912;48.564;9.302;2022-10-15T14:23:15;18.28;79.66
66119;DHT22;52912;48.564;9.302;2022-10-15T14:25:41;18.23;79.52
66119;DHT22;52912;48.564;9.302;2022-10-15T14:28:17;18.20;80.37
66119;DHT22;52912;48.564;9.302;2022-10-15T14:30:43;18.20;80.83
66119;DHT22;52912;48.564;9.302;2022-10-15T14:33:32;18.19;80.93
66119;DHT22;52912;48.564;9.302;2022-10-15T14:36:06;18.22;80.35
66119;DHT22;52912;48.564;9.302;2022-10-15T14:38:33;18.16;79.76
66119;DHT22;52912;48.564;9.302;2022-10-15T14:41:00;18.22;80.29
66119;DHT22;52912;48.564;9.302;2022-10-15T14:43:30;18.20;79.28
66119;DHT22;52912;48.564;9.302;2022-10-15T14:45:58;18.20;78.44
66119;DHT22;52912;48.564;9.302;2022-10-15T14:48:26;18.28;77.81
66119;DHT22;52912;48.564;9.302;2022-10-15T14:50:57;18.34;77.33
66119;DHT22;52912;48.564;9.302;2022-10-15T14:53:24;18.29;77.74
66119;DHT22;52912;48.564;9.302;2022-10-15T14:55:54;18.32;77.41
66119;DHT22;52912;48.564;9.302;2022-10-15T14:58:22;18.36;77.43
66119;DHT22;52912;48.564;9.302;2022-10-15T15:00:54;18.51;77.29
66119;DHT22;52912;48.564;9.302;2022-10-15T15:03:23;18.87;76.42
66119;DHT22;52912;48.564;9.302;2022-10-15T15:05:51;18.71;76.88
66119;DHT22;52912;48.564;9.302;2022-10-15T15:08:18;18.64;77.35
66119;DHT22;52912;48.564;9.302;2022-10-15T15:10:44;18.63;76.87
66119;DHT22;52912;48.564;9.302;2022-10-15T15:13:21;18.63;77.24
66119;DHT22;52912;48.564;9.302;2022-10-15T15:15:46;18.67;77.24
66119;DHT22;52912;48.564;9.302;2022-10-15T15:18:12;18.68;77.13
66119;DHT22;52912;48.564;9.302;2022-10-15T15:20:39;18.67;77.05
66119;DHT22;52912;48.564;9.302;2022-10-15T15:23:05;18.72;76.99
66119;DHT22;52912;48.564;9.302;2022-10-15T15:25:33;18.63;77.06
66119;DHT22;52912;48.564;9.302;2022-10-15T15:27:59;18.57;77.00
66119;DHT22;52912;48.564;9.302;2022-10-15T15:30:27;18.69;76.79
66119;DHT22;52912;48.564;9.302;2022-10-15T15:32:52;18.71;77.16
66119;DHT22;52912;48.564;9.302;2022-10-15T15:35:20;18.65;77.47
66119;DHT22;52912;48.564;9.302;2022-10-15T15:37:46;18.82;77.17
66119;DHT22;52912;48.564;9.302;2022-10-15T15:40:12;18.79;76.73
66119;DHT22;52912;48.564;9.302;2022-10-15T15:42:39;18.63;77.22
66119;DHT22;52912;48.564;9.302;2022-10-15T15:45:08;18.61;77.38
66119;DHT22;52912;48.564;9.302;2022-10-15T15:47:38;18.51;77.60
66119;DHT22;52912;48.564;9.302;2022-10-15T15:50:04;18.54;77.91
66119;DHT22;52912;48.564;9.302;2022-10-15T15:52:29;18.43;77.91
66119;DHT22;52912;48.564;9.302;2022-10-15T15:54:55;18.37;78.54
66119;DHT22;52912;48.564;9.302;2022-10-15T15:57:20;18.30;78.45